Time;durP1;ratioP1;P1;durP2;ratioP2;P2;SDS_P1;SDS_P2;PMS_P1;PMS_P2;Temp;Humidity;BMP_temperature;BMP_pressure;BME280_temperature;BME280_humidity;BME280_pressure;Samples;Min_cycle;Max_cycle;Signal;HPM_P1;HPM_P2
2022/07/25 00:00:44;;;;;;;6.32;4.25;;;;;;;;;;4246557;33;20521;-64
2022/07/25 00:03:10;;;;;;;6.78;4.20;;;;;;;;;;4246284;33;20465;-64
2022/07/25 00:34:03;;;;;;;8.13;3.10;;;;;;;;;;4780399;28;20084;-69
2022/07/25 00:36:29;;;;;;;4.10;3.67;;;;;;;;;;4243171;33;20595;-67
2022/07/25 00:38:55;;;;;;;4.28;3.58;;;;;;;;;;4246776;33;20120;-69
2022/07/25 00:41:21;;;;;;;5.60;3.35;;;;;;;;;;4235713;33;20513;-70
2022/07/25 00:43:47;;;;;;;10.10;3.50;;;;;;;;;;4234243;33;20099;-63
2022/07/25 00:46:17;;;;;;;4.15;3.22;;;;;;;;;;4233883;33;20453;-64
2022/07/25 00:48:43;;;;;;;9.50;4.47;;;;;;;;;;4233958;33;20254;-69
2022/07/25 00:51:10;;;;;;;4.55;3.53;;;;;;;;;;4233707;33;20520;-69
2022/07/25 00:53:37;;;;;;;6.05;4.05;;;;;;;;;;4234063;33;20097;-69
2022/07/25 00:56:04;;;;;;;6.43;4.15;;;;;;;;;;4234052;33;20085;-69
2022/07/25 00:58:30;;;;;;;4.82;3.90;;;;;;;;;;4220928;33;20121;-69
2022/07/25 01:00:56;;;;;;;8.90;4.05;;;;;;;;;;4233346;33;20184;-64
2022/07/25 01:03:22;;;;;;;5.95;4.22;;;;;;;;;;4233992;33;20121;-64
2022/07/25 01:05:49;;;;;;;6.78;4.20;;;;;;;;;;4233996;33;20105;-64
2022/07/25 01:08:19;;;;;;;6.47;4.62;;;;;;;;;;4220538;33;20097;-63
2022/07/25 01:10:46;;;;;;;5.85;4.35;;;;;;;;;;4233555;33;20097;-64
2022/07/25 01:13:12;;;;;;;5.35;4.57;;;;;;;;;;4221018;33;20429;-69
2022/07/25 01:15:38;;;;;;;6.95;4.45;;;;;;;;;;4220601;33;20107;-69
2022/07/25 01:18:04;;;;;;;9.52;4.00;;;;;;;;;;4233631;33;20093;-69
2022/07/25 01:20:31;;;;;;;5.93;3.92;;;;;;;;;;4233456;33;20516;-69
2022/07/25 01:22:58;;;;;;;6.47;4.10;;;;;;;;;;4233688;33;20204;-69
2022/07/25 01:25:24;;;;;;;5.37;3.87;;;;;;;;;;4220440;33;20132;-69
2022/07/25 01:27:52;;;;;;;5.12;4.18;;;;;;;;;;4232755;33;20592;-70
2022/07/25 01:30:18;;;;;;;6.87;4.15;;;;;;;;;;4233316;33;20109;-69
2022/07/25 01:32:44;;;;;;;5.57;3.90;;;;;;;;;;4233758;33;20462;-69
2022/07/25 01:35:12;;;;;;;6.85;3.83;;;;;;;;;;4220214;33;20113;-69
2022/07/25 01:37:38;;;;;;;4.75;3.72;;;;;;;;;;4233436;33;20446;-69
2022/07/25 01:40:05;;;;;;;12.07;3.78;;;;;;;;;;4233243;33;20129;-69
2022/07/25 01:42:31;;;;;;;15.43;6.35;;;;;;;;;;4220221;33;20105;-69
2022/07/25 01:44:57;;;;;;;7.45;4.37;;;;;;;;;;4233438;33;20105;-69
2022/07/25 01:47:23;;;;;;;7.60;5.05;;;;;;;;;;4233398;33;20113;-69
2022/07/25 01:49:49;;;;;;;7.85;5.40;;;;;;;;;;4220547;33;20220;-69
2022/07/25 01:52:15;;;;;;;7.45;5.35;;;;;;;;;;4233341;33;20137;-69
2022/07/25 01:54:41;;;;;;;6.55;4.90;;;;;;;;;;4233409;33;20124;-69
2022/07/25 01:57:08;;;;;;;7.00;5.03;;;;;;;;;;4233286;33;20131;-69
2022/07/25 01:59:39;;;;;;;8.20;5.53;;;;;;;;;;4233302;33;20109;-69
2022/07/25 02:02:05;;;;;;;6.80;4.90;;;;;;;;;;4233520;33;20085;-69
2022/07/25 02:04:32;;;;;;;24.67;7.03;;;;;;;;;;4233569;33;20140;-69
2022/07/25 02:06:58;;;;;;;12.50;6.30;;;;;;;;;;4233583;33;20183;-69
2022/07/25 02:09:23;;;;;;;13.60;5.85;;;;;;;;;;4233003;33;20204;-69
2022/07/25 02:11:49;;;;;;;7.78;5.80;;;;;;;;;;4233109;33;20129;-69
2022/07/25 02:14:15;;;;;;;13.13;5.55;;;;;;;;;;4233453;33;20104;-68
2022/07/25 02:16:41;;;;;;;11.23;7.70;;;;;;;;;;4233364;33;20513;-69
2022/07/25 02:19:07;;;;;;;13.32;6.45;;;;;;;;;;4233263;33;20116;-69
2022/07/25 02:21:34;;;;;;;8.48;5.55;;;;;;;;;;4233237;33;20125;-69
2022/07/25 02:23:59;;;;;;;11.95;5.57;;;;;;;;;;4233170;33;20216;-69
2022/07/25 02:26:26;;;;;;;11.55;6.35;;;;;;;;;;4233200;33;20501;-69
2022/07/25 02:28:52;;;;;;;11.52;6.50;;;;;;;;;;4233183;33;20457;-69
2022/07/25 02:31:18;;;;;;;12.07;5.80;;;;;;;;;;4232922;33;20104;-69
2022/07/25 02:33:44;;;;;;;8.88;6.87;;;;;;;;;;4232831;33;20112;-69
2022/07/25 02:36:11;;;;;;;8.68;5.80;;;;;;;;;;4220243;33;20109;-69
2022/07/25 02:38:37;;;;;;;9.00;6.30;;;;;;;;;;4232692;33;20611;-69
2022/07/25 02:41:03;;;;;;;10.95;6.15;;;;;;;;;;4232792;33;20121;-69
2022/07/25 02:43:29;;;;;;;10.27;6.40;;;;;;;;;;4233188;33;20090;-69
2022/07/25 02:45:55;;;;;;;13.90;7.05;;;;;;;;;;4232906;33;20189;-69
2022/07/25 02:48:22;;;;;;;8.88;6.55;;;;;;;;;;4233141;33;20142;-69
2022/07/25 02:50:48;;;;;;;11.25;6.90;;;;;;;;;;4232792;33;20091;-69
2022/07/25 02:53:14;;;;;;;10.38;6.32;;;;;;;;;;4219899;33;20101;-69
2022/07/25 02:55:40;;;;;;;9.73;7.07;;;;;;;;;;4219808;33;20450;-69
2022/07/25 02:58:05;;;;;;;9.77;6.93;;;;;;;;;;4233031;33;20216;-69
2022/07/25 03:00:32;;;;;;;8.98;6.62;;;;;;;;;;4219638;33;20139;-69
2022/07/25 03:02:58;;;;;;;9.07;6.62;;;;;;;;;;4232625;33;20116;-69
2022/07/25 03:05:24;;;;;;;9.70;6.72;;;;;;;;;;4219535;33;20113;-69
2022/07/25 03:07:50;;;;;;;8.48;6.22;;;;;;;;;;4232946;33;20132;-69
2022/07/25 03:10:16;;;;;;;8.30;6.50;;;;;;;;;;4232480;33;20567;-69
2022/07/25 03:12:43;;;;;;;10.75;7.32;;;;;;;;;;4232608;33;20100;-69
2022/07/25 03:15:10;;;;;;;11.00;7.50;;;;;;;;;;4232617;33;20184;-69
2022/07/25 03:17:36;;;;;;;9.52;7.22;;;;;;;;;;4232582;33;20513;-69
2022/07/25 03:20:03;;;;;;;9.65;7.65;;;;;;;;;;4219724;33;20119;-69
2022/07/25 03:22:29;;;;;;;8.65;6.50;;;;;;;;;;4219434;33;20123;-69
2022/07/25 03:24:55;;;;;;;9.10;7.32;;;;;;;;;;4232542;33;20128;-69
2022/07/25 03:27:21;;;;;;;12.15;7.90;;;;;;;;;;4232546;33;20124;-69
2022/07/25 03:29:47;;;;;;;13.73;7.97;;;;;;;;;;4232488;33;20132;-70
2022/07/25 03:32:13;;;;;;;8.95;7.05;;;;;;;;;;4232409;33;20517;-69
2022/07/25 03:34:39;;;;;;;13.10;7.93;;;;;;;;;;4232398;33;20127;-68
2022/07/25 03:37:05;;;;;;;8.63;7.68;;;;;;;;;;4232450;33;20533;-70
2022/07/25 03:39:31;;;;;;;10.55;8.13;;;;;;;;;;4232592;33;20093;-71
2022/07/25 03:41:57;;;;;;;11.95;7.87;;;;;;;;;;4219596;33;20172;-68
2022/07/25 03:44:24;;;;;;;9.93;8.18;;;;;;;;;;4232467;33;20204;-66
2022/07/25 03:46:51;;;;;;;9.32;8.05;;;;;;;;;;4232367;33;20133;-67
2022/07/25 03:49:17;;;;;;;10.35;7.82;;;;;;;;;;4219006;33;20110;-68
2022/07/25 03:51:43;;;;;;;9.30;8.25;;;;;;;;;;4232162;33;20524;-69
2022/07/25 03:54:12;;;;;;;15.35;8.73;;;;;;;;;;4219340;33;20168;-70
2022/07/25 03:56:38;;;;;;;9.93;8.57;;;;;;;;;;4232201;33;20119;-74
2022/07/25 03:59:04;;;;;;;12.20;9.40;;;;;;;;;;4232314;33;20703;-76
2022/07/25 04:01:31;;;;;;;11.23;8.25;;;;;;;;;;4219166;33;20196;-75
2022/07/25 04:03:57;;;;;;;12.90;9.75;;;;;;;;;;4232331;33;20094;-76
2022/07/25 04:06:23;;;;;;;11.95;8.98;;;;;;;;;;4232547;33;20521;-76
2022/07/25 04:08:49;;;;;;;12.25;9.95;;;;;;;;;;4231971;33;20100;-76
2022/07/25 04:11:15;;;;;;;9.98;8.48;;;;;;;;;;4232348;33;20204;-74
2022/07/25 04:13:41;;;;;;;11.00;9.32;;;;;;;;;;4232360;33;20128;-75
2022/07/25 04:16:08;;;;;;;12.82;10.13;;;;;;;;;;4232323;33;20117;-74
2022/07/25 04:18:34;;;;;;;10.85;8.90;;;;;;;;;;4219123;33;20093;-70
2022/07/25 04:21:00;;;;;;;16.02;9.27;;;;;;;;;;4232219;33;20089;-73
2022/07/25 04:23:27;;;;;;;11.52;9.80;;;;;;;;;;4231884;33;20109;-69
2022/07/25 04:25:54;;;;;;;11.32;9.52;;;;;;;;;;4231971;33;20125;-70
2022/07/25 04:28:20;;;;;;;12.27;10.73;;;;;;;;;;4218956;33;20113;-70
2022/07/25 04:30:46;;;;;;;15.48;10.07;;;;;;;;;;4232034;33;20188;-71
2022/07/25 04:33:12;;;;;;;15.02;11.10;;;;;;;;;;4231835;33;20527;-67
2022/07/25 04:35:38;;;;;;;13.48;9.95;;;;;;;;;;4218624;33;20212;-69
2022/07/25 04:38:04;;;;;;;14.00;10.55;;;;;;;;;;4218715;33;20097;-68
2022/07/25 04:40:31;;;;;;;13.98;9.52;;;;;;;;;;4231607;33;20116;-70
2022/07/25 04:42:57;;;;;;;12.60;9.88;;;;;;;;;;4231916;33;20097;-71
2022/07/25 04:45:23;;;;;;;14.35;11.82;;;;;;;;;;4231737;33;20105;-70
2022/07/25 04:47:49;;;;;;;13.55;10.65;;;;;;;;;;4231637;33;20108;-72
2022/07/25 04:50:15;;;;;;;13.75;9.30;;;;;;;;;;4218771;33;20552;-67
2022/07/25 04:52:42;;;;;;;12.82;9.88;;;;;;;;;;4207316;33;20128;-68
2022/07/25 04:55:08;;;;;;;11.80;8.95;;;;;;;;;;4232113;33;20188;-68
2022/07/25 04:57:35;;;;;;;13.48;10.55;;;;;;;;;;4230460;33;20132;-68
2022/07/25 05:00:03;;;;;;;10.73;9.13;;;;;;;;;;4207499;33;20109;-62
2022/07/25 05:02:29;;;;;;;10.30;8.52;;;;;;;;;;4220528;33;20450;-61
2022/07/25 05:04:55;;;;;;;14.80;8.60;;;;;;;;;;4234239;33;20298;-61
2022/07/25 05:07:21;;;;;;;10.82;8.70;;;;;;;;;;4233954;33;20144;-66
2022/07/25 05:09:47;;;;;;;13.35;7.95;;;;;;;;;;4221285;33;20127;-66
2022/07/25 05:12:13;;;;;;;10.43;7.53;;;;;;;;;;4220977;33;20102;-68
2022/07/25 05:14:40;;;;;;;11.45;8.88;;;;;;;;;;4197766;33;20173;-67
2022/07/25 05:17:06;;;;;;;11.05;8.55;;;;;;;;;;4197935;33;20097;-68
2022/07/25 05:19:32;;;;;;;12.10;8.60;;;;;;;;;;4209162;33;20208;-69
2022/07/25 05:21:58;;;;;;;11.38;8.45;;;;;;;;;;4233410;33;20517;-68
2022/07/25 05:24:24;;;;;;;10.55;8.70;;;;;;;;;;4233813;33;20113;-68
2022/07/25 05:26:50;;;;;;;11.55;8.45;;;;;;;;;;4233614;33;20214;-69
2022/07/25 05:29:16;;;;;;;10.82;9.30;;;;;;;;;;4209118;33;20113;-68
2022/07/25 05:31:42;;;;;;;9.82;7.50;;;;;;;;;;4233540;33;20100;-69
2022/07/25 05:34:08;;;;;;;9.15;7.30;;;;;;;;;;4233614;33;20117;-69
2022/07/25 05:36:34;;;;;;;10.50;9.13;;;;;;;;;;4233657;33;20180;-68
2022/07/25 05:39:00;;;;;;;13.45;7.82;;;;;;;;;;4233425;33;20526;-69
2022/07/25 05:41:26;;;;;;;8.93;7.55;;;;;;;;;;4233380;33;20117;-68
2022/07/25 05:43:52;;;;;;;14.90;8.32;;;;;;;;;;4220680;33;20154;-68
2022/07/25 05:46:18;;;;;;;12.50;8.45;;;;;;;;;;4233373;33;20232;-68
2022/07/25 05:48:44;;;;;;;11.05;8.27;;;;;;;;;;4233340;33;20120;-71
2022/07/25 05:51:11;;;;;;;10.10;7.80;;;;;;;;;;4233606;33;20117;-71
2022/07/25 05:53:37;;;;;;;12.65;8.60;;;;;;;;;;4233366;33;20131;-70
2022/07/25 05:56:04;;;;;;;12.50;8.88;;;;;;;;;;4233255;33;20525;-70
2022/07/25 05:58:30;;;;;;;11.43;8.88;;;;;;;;;;4233307;33;20132;-69
2022/07/25 06:00:57;;;;;;;10.95;8.15;;;;;;;;;;4220279;33;20599;-70
2022/07/25 06:03:23;;;;;;;10.50;8.00;;;;;;;;;;4233146;33;20439;-71
2022/07/25 06:05:49;;;;;;;10.65;7.95;;;;;;;;;;4233451;33;20106;-71
2022/07/25 06:08:15;;;;;;;11.88;8.68;;;;;;;;;;4233170;33;20142;-71
2022/07/25 06:10:41;;;;;;;9.50;7.72;;;;;;;;;;4233368;33;20106;-66
2022/07/25 06:13:08;;;;;;;10.85;8.02;;;;;;;;;;4232636;33;20101;-67
2022/07/25 06:15:34;;;;;;;9.75;7.65;;;;;;;;;;4233303;33;20113;-67
2022/07/25 06:18:00;;;;;;;14.40;9.15;;;;;;;;;;4233060;33;20143;-67
2022/07/25 06:20:26;;;;;;;9.65;7.93;;;;;;;;;;4233102;33;20104;-67
2022/07/25 06:22:52;;;;;;;9.63;7.65;;;;;;;;;;4233294;33;20438;-68
2022/07/25 06:25:18;;;;;;;10.10;8.73;;;;;;;;;;4219782;33;20117;-67
2022/07/25 06:27:44;;;;;;;10.73;8.02;;;;;;;;;;4233008;33;20866;-68
2022/07/25 06:30:13;;;;;;;12.32;9.25;;;;;;;;;;4232899;33;20094;-68
2022/07/25 06:32:39;;;;;;;10.88;8.77;;;;;;;;;;4232950;33;20473;-67
2022/07/25 06:35:06;;;;;;;10.60;8.23;;;;;;;;;;4232826;33;20208;-66
2022/07/25 06:37:32;;;;;;;9.65;8.40;;;;;;;;;;4232829;33;20125;-67
2022/07/25 06:39:59;;;;;;;11.12;8.98;;;;;;;;;;4219955;33;20205;-69
2022/07/25 06:42:25;;;;;;;11.55;7.90;;;;;;;;;;4232699;33;20124;-67
2022/07/25 06:44:51;;;;;;;11.10;7.82;;;;;;;;;;4232805;33;20109;-67
2022/07/25 06:47:17;;;;;;;8.75;7.85;;;;;;;;;;4232883;33;20216;-67
2022/07/25 06:49:43;;;;;;;11.95;8.07;;;;;;;;;;4232647;33;20106;-68
2022/07/25 06:52:09;;;;;;;11.10;7.95;;;;;;;;;;4232817;33;20131;-66
2022/07/25 06:54:35;;;;;;;13.50;9.38;;;;;;;;;;4232721;33;20177;-67
2022/07/25 06:57:01;;;;;;;9.15;7.90;;;;;;;;;;4232757;33;20489;-67
2022/07/25 06:59:27;;;;;;;11.82;8.20;;;;;;;;;;4232878;33;20126;-67
2022/07/25 07:01:53;;;;;;;12.85;8.80;;;;;;;;;;4232859;33;20220;-67
2022/07/25 07:04:19;;;;;;;10.35;8.80;;;;;;;;;;4232627;33;20117;-67
2022/07/25 07:06:45;;;;;;;10.18;9.02;;;;;;;;;;4219930;33;20112;-67
2022/07/25 07:09:12;;;;;;;11.05;8.93;;;;;;;;;;4232718;33;20133;-67
2022/07/25 07:11:37;;;;;;;11.00;8.88;;;;;;;;;;4232747;33;20105;-67
2022/07/25 07:14:04;;;;;;;10.18;8.50;;;;;;;;;;4232792;33;20224;-67
2022/07/25 07:16:30;;;;;;;13.20;9.73;;;;;;;;;;4219443;33;20113;-67
2022/07/25 07:18:56;;;;;;;13.55;9.10;;;;;;;;;;4232593;33;20102;-67
2022/07/25 07:21:23;;;;;;;16.15;10.50;;;;;;;;;;4232622;33;20121;-66
2022/07/25 07:23:49;;;;;;;12.88;8.85;;;;;;;;;;4232511;33;20211;-66
2022/07/25 07:26:16;;;;;;;12.43;8.48;;;;;;;;;;4232493;33;20206;-68
2022/07/25 07:28:41;;;;;;;13.95;8.50;;;;;;;;;;4219507;33;20120;-68
2022/07/25 07:31:07;;;;;;;10.27;7.70;;;;;;;;;;4232374;33;20113;-68
2022/07/25 07:33:34;;;;;;;10.73;7.28;;;;;;;;;;4232569;33;20570;-68
2022/07/25 07:36:03;;;;;;;10.10;7.82;;;;;;;;;;4232379;33;20116;-70
2022/07/25 07:38:28;;;;;;;12.20;7.75;;;;;;;;;;4232531;33;20120;-70
2022/07/25 07:40:54;;;;;;;18.17;8.75;;;;;;;;;;4232282;33;20609;-72
2022/07/25 07:43:20;;;;;;;15.90;7.87;;;;;;;;;;4232223;33;20109;-65
2022/07/25 07:45:46;;;;;;;12.37;9.02;;;;;;;;;;4219410;33;20127;-68
2022/07/25 07:48:12;;;;;;;18.23;9.82;;;;;;;;;;4232514;33;20513;-69
2022/07/25 07:50:39;;;;;;;21.00;11.88;;;;;;;;;;4232231;33;20473;-69
2022/07/25 07:53:06;;;;;;;17.90;11.15;;;;;;;;;;4219381;33;20109;-67
2022/07/25 07:55:44;;;;;;;18.20;10.95;;;;;;;;;;4232256;33;20088;-69
2022/07/25 07:58:11;;;;;;;22.92;12.75;;;;;;;;;;4232296;33;20481;-69
2022/07/25 08:00:40;;;;;;;21.98;14.77;;;;;;;;;;4232144;33;20259;-69
2022/07/25 08:03:12;;;;;;;24.65;15.05;;;;;;;;;;4231581;33;20108;-70
2022/07/25 08:05:42;;;;;;;23.52;15.75;;;;;;;;;;4180735;33;20539;-70
2022/07/25 08:08:11;;;;;;;20.23;13.32;;;;;;;;;;4231150;33;20117;-70
2022/07/25 08:10:40;;;;;;;19.08;13.88;;;;;;;;;;4231911;33;20116;-68
2022/07/25 08:13:36;;;;;;;26.33;14.82;;;;;;;;;;4232244;33;20200;-68
2022/07/25 08:16:03;;;;;;;19.73;12.63;;;;;;;;;;4226262;33;20520;-69
2022/07/25 08:18:31;;;;;;;24.98;12.93;;;;;;;;;;4207365;33;20213;-68
2022/07/25 08:20:59;;;;;;;21.65;12.18;;;;;;;;;;4218883;33;20100;-67
2022/07/25 08:23:26;;;;;;;21.60;13.77;;;;;;;;;;4231926;33;20133;-67
2022/07/25 08:25:52;;;;;;;20.12;11.40;;;;;;;;;;4231928;33;20113;-66
2022/07/25 08:28:19;;;;;;;18.98;12.80;;;;;;;;;;4231838;33;20140;-67
2022/07/25 08:30:45;;;;;;;24.27;14.38;;;;;;;;;;4231861;33;20105;-68
2022/07/25 08:33:14;;;;;;;23.65;13.82;;;;;;;;;;4231942;33;20128;-67
2022/07/25 08:35:48;;;;;;;23.00;14.48;;;;;;;;;;4231389;33;20113;-67
2022/07/25 08:38:14;;;;;;;22.13;15.55;;;;;;;;;;4218720;33;20140;-68
2022/07/25 08:40:40;;;;;;;25.27;15.13;;;;;;;;;;4231912;33;20153;-67
2022/07/25 08:43:10;;;;;;;27.13;16.58;;;;;;;;;;4231958;33;20121;-68
2022/07/25 08:45:40;;;;;;;23.23;15.40;;;;;;;;;;4231835;33;20468;-68
2022/07/25 08:48:06;;;;;;;17.83;13.50;;;;;;;;;;4231979;33;20143;-67
2022/07/25 08:50:32;;;;;;;18.35;12.30;;;;;;;;;;4231954;33;20137;-66
2022/07/25 08:52:58;;;;;;;18.45;12.52;;;;;;;;;;4221085;33;20208;-68
2022/07/25 08:55:27;;;;;;;20.62;12.63;;;;;;;;;;4233557;33;20117;-67
2022/07/25 08:57:53;;;;;;;28.75;14.27;;;;;;;;;;4233965;33;20207;-68
2022/07/25 09:00:22;;;;;;;21.20;13.80;;;;;;;;;;4233892;33;20108;-67
2022/07/25 09:02:56;;;;;;;21.50;13.48;;;;;;;;;;4233782;33;20120;-67
2022/07/25 09:05:23;;;;;;;;;;;;;;;;;;4233968;33;20089;-67
2022/07/25 09:07:52;;;;;;;23.87;12.95;;;;;;;;;;4233805;33;20000;-67
2022/07/25 09:10:19;;;;;;;21.95;14.52;;;;;;;;;;4233887;33;20121;-67
2022/07/25 09:12:54;;;;;;;24.80;15.50;;;;;;;;;;4220615;33;20149;-67
2022/07/25 09:15:31;;;;;;;21.55;14.50;;;;;;;;;;4233448;33;20127;-69
2022/07/25 09:18:00;;;;;;;25.30;15.27;;;;;;;;;;4233724;33;20186;-69
2022/07/25 09:20:36;;;;;;;26.27;15.88;;;;;;;;;;4233431;33;20545;-69
2022/07/25 09:23:02;;;;;;;25.58;16.08;;;;;;;;;;4233927;33;20192;-68
2022/07/25 09:25:28;;;;;;;24.83;15.50;;;;;;;;;;4233445;33;20566;-69
2022/07/25 09:28:15;;;;;;;29.48;16.15;;;;;;;;;;4220618;33;20200;-68
2022/07/25 09:30:53;;;;;;;25.05;14.87;;;;;;;;;;4233294;33;20128;-67
2022/07/25 09:33:20;;;;;;;24.87;14.85;;;;;;;;;;4220821;33;20481;-66
2022/07/25 09:35:47;;;;;;;20.37;12.52;;;;;;;;;;4233637;33;20132;-68
2022/07/25 09:38:15;;;;;;;30.90;16.27;;;;;;;;;;4220804;33;20124;-68
2022/07/25 09:40:41;;;;;;;26.62;17.02;;;;;;;;;;4233471;33;20193;-68
2022/07/25 09:43:07;;;;;;;29.75;16.70;;;;;;;;;;4220786;33;20116;-67
2022/07/25 09:45:33;;;;;;;28.48;16.62;;;;;;;;;;4233436;33;20195;-70
2022/07/25 09:48:04;;;;;;;27.67;17.48;;;;;;;;;;4219524;33;20144;-69
2022/07/25 09:50:32;;;;;;;24.58;15.18;;;;;;;;;;4233001;33;20139;-69
2022/07/25 09:53:00;;;;;;;22.10;12.70;;;;;;;;;;4232817;33;20106;-67
2022/07/25 09:55:27;;;;;;;23.67;13.25;;;;;;;;;;4208980;33;20094;-68
2022/07/25 09:57:54;;;;;;;22.33;13.40;;;;;;;;;;4220289;33;20136;-67
2022/07/25 10:00:23;;;;;;;23.70;14.32;;;;;;;;;;4209075;33;20497;-70
2022/07/25 10:03:19;;;;;;;21.25;14.05;;;;;;;;;;4204699;34;20641;-66
2022/07/25 10:06:07;;;;;;;25.25;12.82;;;;;;;;;;4206851;34;20106;-67
2022/07/25 10:08:38;;;;;;;23.50;13.52;;;;;;;;;;4229946;33;20125;-66
2022/07/25 10:11:05;;;;;;;22.25;13.55;;;;;;;;;;4197113;33;20103;-67
2022/07/25 10:13:34;;;;;;;17.95;11.98;;;;;;;;;;4208750;33;20524;-65
2022/07/25 10:16:00;;;;;;;23.65;13.02;;;;;;;;;;4227506;33;20122;-68
2022/07/25 10:18:27;;;;;;;22.15;12.20;;;;;;;;;;4219972;33;20121;-67
2022/07/25 10:20:56;;;;;;;22.95;11.00;;;;;;;;;;4233258;33;20125;-68
2022/07/25 10:23:27;;;;;;;20.88;11.15;;;;;;;;;;4217568;33;20200;-69
2022/07/25 10:26:06;;;;;;;15.05;11.20;;;;;;;;;;4233612;33;20129;-68
2022/07/25 10:28:38;;;;;;;19.20;11.52;;;;;;;;;;4219654;33;20533;-70
2022/07/25 10:31:14;;;;;;;18.62;11.57;;;;;;;;;;4232954;33;20203;-69
2022/07/25 10:33:41;;;;;;;18.17;11.55;;;;;;;;;;4232438;33;20089;-69
2022/07/25 10:36:09;;;;;;;18.10;12.48;;;;;;;;;;4232919;33;20484;-66
2022/07/25 10:38:41;;;;;;;20.80;11.60;;;;;;;;;;4232672;33;20132;-66
2022/07/25 10:41:09;;;;;;;38.95;11.95;;;;;;;;;;4232801;33;20200;-66
2022/07/25 10:43:39;;;;;;;16.30;9.05;;;;;;;;;;4233042;33;20192;-66
2022/07/25 10:46:22;;;;;;;14.07;9.65;;;;;;;;;;4197030;33;20094;-69
2022/07/25 10:48:59;;;;;;;14.38;8.75;;;;;;;;;;4217408;33;20126;-64
2022/07/25 10:51:28;;;;;;;17.40;8.32;;;;;;;;;;4194595;33;20135;-65
2022/07/25 10:53:54;;;;;;;11.93;7.97;;;;;;;;;;4207965;33;20113;-66
2022/07/25 10:56:22;;;;;;;9.88;8.18;;;;;;;;;;4220041;33;20136;-66
2022/07/25 10:58:51;;;;;;;8.95;7.40;;;;;;;;;;4232886;33;20097;-65
2022/07/25 11:01:25;;;;;;;9.82;6.70;;;;;;;;;;4208606;33;20113;-66
2022/07/25 11:03:53;;;;;;;11.30;7.43;;;;;;;;;;4232906;33;20112;-66
2022/07/25 11:06:48;;;;;;;11.68;6.80;;;;;;;;;;4208437;33;20120;-67
2022/07/25 11:09:16;;;;;;;8.48;6.62;;;;;;;;;;4213473;33;20113;-70
2022/07/25 11:11:47;;;;;;;10.30;7.85;;;;;;;;;;4232961;33;20216;-71
2022/07/25 11:14:24;;;;;;;8.43;6.22;;;;;;;;;;4232807;33;20131;-67
2022/07/25 11:16:52;;;;;;;6.82;5.37;;;;;;;;;;4219674;33;20097;-67
2022/07/25 11:19:28;;;;;;;8.70;6.10;;;;;;;;;;4232608;33;20465;-67
2022/07/25 11:21:58;;;;;;;10.90;6.10;;;;;;;;;;4232537;33;20132;-67
2022/07/25 11:24:39;;;;;;;9.75;5.65;;;;;;;;;;4232607;33;20239;-67
2022/07/25 11:27:06;;;;;;;11.63;4.70;;;;;;;;;;4232615;33;20157;-67
2022/07/25 11:29:33;;;;;;;11.40;4.68;;;;;;;;;;4232394;33;20128;-68
2022/07/25 11:32:01;;;;;;;19.45;6.62;;;;;;;;;;4232508;33;20203;-66
2022/07/25 11:34:33;;;;;;;12.93;4.53;;;;;;;;;;4219901;33;20119;-67
2022/07/25 11:37:02;;;;;;;13.48;5.35;;;;;;;;;;4205743;34;20121;-66
2022/07/25 11:39:29;;;;;;;11.57;5.68;;;;;;;;;;4210408;33;20092;-68
2022/07/25 11:42:06;;;;;;;7.82;5.20;;;;;;;;;;4232523;33;20137;-67
2022/07/25 11:44:40;;;;;;;5.75;4.60;;;;;;;;;;4226477;33;20111;-69
2022/07/25 11:47:08;;;;;;;5.30;3.58;;;;;;;;;;4219664;33;20090;-66
2022/07/25 11:49:45;;;;;;;5.53;4.20;;;;;;;;;;4232485;33;20129;-67
2022/07/25 11:52:34;;;;;;;5.97;4.30;;;;;;;;;;4196053;33;20097;-65
2022/07/25 11:55:05;;;;;;;8.65;4.97;;;;;;;;;;4223559;33;20109;-67
2022/07/25 11:57:35;;;;;;;12.07;4.43;;;;;;;;;;4193930;34;20115;-67
2022/07/25 12:00:08;;;;;;;8.35;5.15;;;;;;;;;;4185180;33;20180;-66
2022/07/25 12:02:35;;;;;;;8.45;5.78;;;;;;;;;;4232248;33;20089;-67
2022/07/25 12:05:06;;;;;;;7.43;5.70;;;;;;;;;;4232123;33;20100;-67
2022/07/25 12:07:45;;;;;;;9.68;5.25;;;;;;;;;;4232065;33;20525;-66
2022/07/25 12:10:17;;;;;;;7.65;6.85;;;;;;;;;;4231522;33;20517;-67
2022/07/25 12:12:50;;;;;;;6.78;4.90;;;;;;;;;;4232098;33;20124;-68
2022/07/25 12:15:37;;;;;;;11.57;5.00;;;;;;;;;;4232231;33;20098;-68
2022/07/25 12:18:05;;;;;;;4.97;4.47;;;;;;;;;;4231888;33;20136;-68
2022/07/25 12:20:37;;;;;;;9.07;4.70;;;;;;;;;;4219025;33;20104;-68
2022/07/25 12:23:05;;;;;;;5.75;4.85;;;;;;;;;;4231927;33;20093;-68
2022/07/25 12:25:32;;;;;;;7.95;4.93;;;;;;;;;;4231860;33;20195;-68
2022/07/25 12:27:59;;;;;;;8.35;5.53;;;;;;;;;;4231788;33;20117;-69
2022/07/25 12:30:29;;;;;;;7.28;4.55;;;;;;;;;;4218905;33;20078;-68
2022/07/25 12:32:56;;;;;;;10.02;5.12;;;;;;;;;;4231946;33;20109;-68
2022/07/25 12:35:23;;;;;;;10.20;5.65;;;;;;;;;;4231772;33;20529;-70
2022/07/25 12:37:49;;;;;;;8.80;5.80;;;;;;;;;;4231964;33;20545;-73
2022/07/25 12:40:16;;;;;;;14.32;5.65;;;;;;;;;;4231649;33;20837;-71
2022/07/25 12:42:43;;;;;;;9.65;6.18;;;;;;;;;;4231841;33;20180;-71
2022/07/25 12:45:09;;;;;;;8.13;5.47;;;;;;;;;;4231810;33;20124;-71
2022/07/25 12:47:36;;;;;;;11.38;4.68;;;;;;;;;;4231719;33;20127;-71
2022/07/25 12:50:03;;;;;;;5.68;4.68;;;;;;;;;;4218879;33;20118;-71
2022/07/25 12:52:29;;;;;;;6.60;4.40;;;;;;;;;;4231682;33;20105;-67
2022/07/25 12:54:55;;;;;;;7.50;4.57;;;;;;;;;;4231646;33;20105;-68
2022/07/25 12:57:21;;;;;;;7.60;4.78;;;;;;;;;;4231860;33;20195;-69
2022/07/25 12:59:47;;;;;;;8.00;4.57;;;;;;;;;;4231655;33;20185;-68
2022/07/25 13:02:14;;;;;;;5.55;4.18;;;;;;;;;;4231472;33;20117;-67
2022/07/25 13:04:40;;;;;;;5.72;4.20;;;;;;;;;;4218461;33;20105;-68
2022/07/25 13:07:06;;;;;;;5.20;4.03;;;;;;;;;;4231430;33;20106;-69
2022/07/25 13:09:32;;;;;;;15.23;5.53;;;;;;;;;;4231603;33;20105;-68
2022/07/25 13:11:58;;;;;;;6.40;4.65;;;;;;;;;;4231405;33;20116;-69
2022/07/25 13:14:24;;;;;;;5.93;4.57;;;;;;;;;;4231629;33;20113;-68
2022/07/25 13:16:51;;;;;;;5.40;4.50;;;;;;;;;;4218550;33;20105;-68
2022/07/25 13:19:17;;;;;;;5.40;4.57;;;;;;;;;;4231481;33;20093;-67
2022/07/25 13:21:43;;;;;;;5.00;4.47;;;;;;;;;;4206909;33;20094;-68
2022/07/25 13:24:10;;;;;;;5.95;4.62;;;;;;;;;;4233940;33;20093;-68
2022/07/25 13:26:37;;;;;;;5.60;4.47;;;;;;;;;;4233613;33;20279;-67
2022/07/25 13:29:07;;;;;;;4.50;4.10;;;;;;;;;;4233798;33;20200;-66
2022/07/25 13:31:34;;;;;;;5.18;3.90;;;;;;;;;;4233437;33;20128;-70
2022/07/25 13:34:01;;;;;;;6.28;4.15;;;;;;;;;;4220672;33;20224;-65
2022/07/25 13:36:27;;;;;;;6.78;4.50;;;;;;;;;;4233600;33;20533;-67
2022/07/25 13:38:53;;;;;;;6.68;4.00;;;;;;;;;;4233750;33;20551;-68
2022/07/25 13:41:19;;;;;;;5.45;3.67;;;;;;;;;;4233524;33;20129;-68
2022/07/25 13:43:46;;;;;;;5.22;4.30;;;;;;;;;;4233523;33;20119;-68
2022/07/25 13:46:12;;;;;;;4.90;4.32;;;;;;;;;;4233352;33;20124;-68
2022/07/25 13:48:39;;;;;;;4.30;3.90;;;;;;;;;;4233470;33;20192;-67
2022/07/25 13:51:05;;;;;;;11.93;4.18;;;;;;;;;;4233323;33;20108;-68
2022/07/25 13:53:31;;;;;;;7.05;4.90;;;;;;;;;;4220276;33;20877;-68
2022/07/25 13:55:58;;;;;;;5.15;4.60;;;;;;;;;;4233256;33;20101;-67
2022/07/25 13:58:25;;;;;;;7.65;4.40;;;;;;;;;;4233248;33;20129;-70
2022/07/25 14:00:51;;;;;;;9.35;4.78;;;;;;;;;;4233272;33;20294;-68
2022/07/25 14:03:17;;;;;;;8.10;4.68;;;;;;;;;;4233077;33;20112;-68
2022/07/25 14:05:43;;;;;;;9.63;5.07;;;;;;;;;;4233515;33;20124;-70
2022/07/25 14:08:09;;;;;;;14.40;6.07;;;;;;;;;;4233228;33;20089;-70
2022/07/25 14:10:35;;;;;;;16.45;7.43;;;;;;;;;;4232999;33;20093;-69
2022/07/25 14:13:02;;;;;;;16.42;7.78;;;;;;;;;;4233185;33;20112;-70
2022/07/25 14:15:28;;;;;;;17.52;10.80;;;;;;;;;;4233063;33;20165;-70
2022/07/25 14:17:54;;;;;;;26.80;12.13;;;;;;;;;;4233404;33;20445;-69
2022/07/25 14:20:20;;;;;;;21.35;11.20;;;;;;;;;;4233236;33;20140;-70
2022/07/25 14:22:47;;;;;;;17.60;10.38;;;;;;;;;;4220198;33;20093;-69
2022/07/25 14:25:12;;;;;;;19.58;10.00;;;;;;;;;;4233245;33;20108;-69
2022/07/25 14:27:39;;;;;;;27.42;11.88;;;;;;;;;;4233017;33;20101;-69
2022/07/25 14:30:06;;;;;;;26.98;11.43;;;;;;;;;;4232914;33;20530;-69
2022/07/25 14:32:32;;;;;;;29.45;14.10;;;;;;;;;;4232871;33;20205;-68
2022/07/25 14:35:00;;;;;;;23.10;14.15;;;;;;;;;;4207446;33;20378;-68
2022/07/25 14:37:27;;;;;;;19.90;11.82;;;;;;;;;;4219224;33;20111;-68
2022/07/25 14:39:53;;;;;;;26.08;12.00;;;;;;;;;;4229125;33;20194;-69
2022/07/25 14:42:20;;;;;;;24.20;11.55;;;;;;;;;;4183656;33;20208;-68
2022/07/25 14:44:46;;;;;;;26.40;12.40;;;;;;;;;;4233016;33;20116;-71
2022/07/25 14:47:12;;;;;;;31.42;11.65;;;;;;;;;;4222031;33;20128;-68
2022/07/25 14:49:39;;;;;;;37.15;15.48;;;;;;;;;;4246934;33;20539;-67
2022/07/25 14:52:05;;;;;;;34.63;15.60;;;;;;;;;;4230126;33;20109;-67
2022/07/25 14:54:31;;;;;;;39.28;15.90;;;;;;;;;;4225906;33;20439;-67
2022/07/25 14:56:57;;;;;;;38.05;16.27;;;;;;;;;;4229493;33;20123;-68
2022/07/25 14:59:23;;;;;;;29.05;14.77;;;;;;;;;;4230233;33;20105;-67
2022/07/25 15:01:49;;;;;;;39.30;16.02;;;;;;;;;;4219242;33;20096;-67